Latest Coastal Weather Observations for Melbourne (Olympic Park)

IDV60701

Issued at 7:25 pm EST Friday 25 April 2014 (issued every 10 minutes, with the page automatically refreshed every 10 minutes)

About coastal observations | Map of coastal stations | Coastal observations for VIC | Marine services | Other Formats
Station Details ID: 086338 Name: MELBOURNE (OLYMPIC PARK) Lat: -37.83 Lon: 144.98 Height: 7.53 m
Data from the previous 72 hours. | See also: Recent months for locations in Victoria
Date/Time
EST
Temp

°C
Wind Pressure Rain
since 9am
mm
Weather Cloud Vis
km
Sea
Height
m
Swell
Dir
 
Speed
knots
Gust
knots
hPa Trend Height
m
Period
s
Dir
25/07:00pm 17.1 N 7 12 1013.7 - 0.0 - - - - - - -
25/06:30pm 17.3 N 9 13 1013.4 - 0.0 - - - - - - -
25/06:00pm 17.7 NNW 9 17 1013.5 - 0.0 - - - - - - -
25/05:30pm 18.6 NNW 9 14 1013.0 - 0.0 - - - - - - -
25/05:00pm 18.8 N 10 16 1012.6 - 0.0 - - - - - - -
25/04:30pm 19.6 N 10 15 1012.5 - 0.0 - - - - - - -
25/04:00pm 19.9 N 11 19 1012.9 - 0.0 - - - - - - -
25/03:30pm 20.3 N 11 17 1013.2 - 0.0 - - - - - - -
25/03:00pm 20.2 N 11 16 1013.5 - 0.0 - - - - - - -
25/02:30pm 20.1 NNW 10 15 1013.9 - 0.0 - - - - - - -
25/02:00pm 20.5 N 11 15 1014.2 - 0.0 - - - - - - -
25/01:30pm 19.5 NNW 12 21 1014.9 - 0.0 - - - - - - -
25/01:00pm 19.2 NNW 11 17 1015.6 - 0.0 - - - - - - -
25/12:30pm 18.2 NNE 2 7 1016.4 - 0.0 - - - - - - -
25/12:00pm 15.9 N 3 6 1017.3 - 0.0 - - - - - - -
25/11:30am 15.7 N 1 5 1018.1 - 0.0 - - - - - - -
25/11:00am 14.2 NE 1 4 1018.5 - 0.0 - - - - - - -
25/10:30am 12.7 ENE 2 5 1019.1 - 0.0 - - - - - - -
25/10:00am 12.0 NE 3 5 1019.5 - 0.0 - - - - - - -
25/09:30am 10.5 NNE 5 7 1020.2 - 0.0 - - - - - - -
25/09:00am 9.7 NNE 5 6 1020.6 - 0.2 - - - - - - -
25/08:30am 8.8 NE 3 5 1020.8 - 0.2 - - - - - - -
25/08:00am 7.0 NE 5 6 1020.9 - 0.2 - - - - - - -
25/07:30am 6.9 NE 3 4 1021.0 - 0.2 - - - - - - -
25/07:00am 7.1 ENE 3 6 1020.9 - 0.2 - - - - - - -
25/06:30am 6.4 ESE 0 0 1021.1 - 0.2 - - - - - - -
25/06:00am 7.0 NNE 5 6 1021.2 - 0.2 - - - - - - -
25/05:30am 7.3 NNE 6 7 1020.9 - 0.2 - - - - - - -
25/05:00am 7.9 NE 5 6 1020.7 - 0.2 - - - - - - -
25/04:30am 7.4 CALM 0 0 1020.5 - 0.2 - - - - - - -
25/04:00am 8.6 NNE 3 5 1020.6 - 0.2 - - - - - - -
25/03:30am 8.5 NNE 3 5 1020.7 - 0.2 - - - - - - -
25/03:00am 8.9 NNE 5 7 1021.0 - 0.2 - - - - - - -
25/02:30am 9.8 NNE 2 4 1020.9 - 0.2 - - - - - - -
25/02:00am 10.3 N 2 4 1021.0 - 0.2 - - - - - - -
25/01:30am 10.2 CALM 0 0 1021.1 - 0.2 - - - - - - -
25/01:00am 11.6 NNE 3 4 1021.1 - 0.2 - - - - - - -
25/12:30am 12.5 NE 2 5 1021.2 - 0.2 - - - - - - -
25/12:00am 12.6 NNE 0 3 1021.5 - 0.2 - - - - - - -
 
Date/Time
EST
Temp

°C
Wind Pressure Rain
since 9am
mm
Weather Cloud Vis
km
Sea
Height
m
Swell
Dir
 
Speed
knots
Gust
knots
hPa Trend Height
m
Period
s
Dir
24/11:30pm 12.6 E 2 4 1021.7 - 0.2 - - - - - - -
24/11:00pm 12.7 E 2 4 1021.7 - 0.2 - - - - - - -
24/10:30pm 13.1 ESE 4 7 1021.7 - 0.2 - - - - - - -
24/10:00pm 13.3 SE 4 7 1021.7 - 0.2 - - - - - - -
24/09:30pm 13.5 SE 5 7 1021.5 - 0.2 - - - - - - -
24/09:00pm 13.4 ESE 4 6 1021.3 - 0.2 - - - - - - -
24/08:30pm 13.5 ESE 4 7 1021.1 - 0.2 - - - - - - -
24/08:00pm 13.6 SSE 3 5 1020.8 - 0.2 - - - - - - -
24/07:30pm 13.8 SSE 4 6 1020.5 - 0.2 - - - - - - -
24/07:00pm 13.9 SSE 5 9 1020.2 - 0.2 - - - - - - -
24/06:30pm 14.2 SSE 5 8 1019.9 - 0.2 - - - - - - -
24/06:00pm 14.2 SSE 5 9 1019.5 - 0.2 - - - - - - -
24/05:30pm 14.3 SSE 7 12 1019.0 - 0.2 - - - - - - -
24/05:00pm 14.4 S 4 6 1018.6 - 0.2 - - - - - - -
24/04:30pm 14.9 S 7 11 1018.4 - 0.2 - - - - - - -
24/04:00pm 15.5 S 7 12 1018.1 - 0.2 - - - - - - -
24/03:30pm 15.9 SSE 8 13 1017.9 - 0.2 - - - - - - -
24/03:00pm 16.4 SSW 6 11 1017.6 - 0.2 - - - - - - -
24/02:30pm 16.3 S 7 12 1017.5 - 0.2 - - - - - - -
24/02:00pm 16.6 SSW 6 11 1017.4 - 0.2 - - - - - - -
24/01:30pm 16.3 S 7 13 1017.3 - 0.2 - - - - - - -
24/01:00pm 16.3 SSW 9 15 1017.4 - 0.2 - - - - - - -
24/12:30pm 15.8 SSW 9 17 1017.4 - 0.2 - - - - - - -
24/12:00pm 15.7 SSW 8 15 1017.4 - 0.2 - - - - - - -
24/11:30am 16.8 SW 7 14 1017.2 - 0.2 - - - - - - -
24/11:00am 15.9 SSW 10 17 1016.9 - 0.2 - - - - - - -
24/10:30am 16.5 WSW 6 15 1016.5 - 0.2 - - - - - - -
24/10:00am 15.9 WSW 7 13 1016.1 - 0.0 - - - - - - -
24/09:30am 15.3 W 7 13 1015.6 - 0.0 - - - - - - -
24/09:00am 14.0 W 6 13 1015.2 - 0.2 - - - - - - -
24/08:30am 13.9 W 8 16 1014.5 - 0.2 - - - - - - -
24/08:00am 15.3 NW 5 8 1013.2 - 0.0 - - - - - - -
24/07:30am 15.1 N 6 10 1012.4 - 0.0 - - - - - - -
24/07:00am 15.2 N 6 10 1012.0 - 0.0 - - - - - - -
24/06:30am 14.3 N 7 11 1011.8 - 0.0 - - - - - - -
24/06:00am 13.8 N 6 8 1011.7 - 0.0 - - - - - - -
24/05:30am 13.4 NNE 8 10 1011.2 - 0.0 - - - - - - -
24/05:00am 13.7 N 6 11 1010.9 - 0.0 - - - - - - -
24/04:30am 13.5 N 7 13 1010.5 - 0.0 - - - - - - -
24/04:00am 14.1 N 7 9 1010.6 - 0.0 - - - - - - -
24/03:30am 14.8 N 9 13 1010.7 - 0.0 - - - - - - -
24/03:00am 15.0 N 7 9 1010.6 - 0.0 - - - - - - -
24/02:30am 15.0 N 7 13 1011.0 - 0.0 - - - - - - -
24/02:00am 15.2 N 7 11 1011.3 - 0.0 - - - - - - -
24/01:30am 15.0 N 8 11 1011.4 - 0.0 - - - - - - -
24/01:00am 15.1 N 7 9 1011.7 - 0.0 - - - - - - -
24/12:30am 14.8 N 7 10 1011.8 - 0.0 - - - - - - -
24/12:00am 14.5 N 7 10 1012.2 - 0.0 - - - - - - -
 
Date/Time
EST
Temp

°C
Wind Pressure Rain
since 9am
mm
Weather Cloud Vis
km
Sea
Height
m
Swell
Dir
 
Speed
knots
Gust
knots
hPa Trend Height
m
Period
s
Dir
23/11:30pm 14.9 N 8 10 1012.4 - 0.0 - - - - - - -
23/11:00pm 14.6 N 7 11 1012.8 - 0.0 - - - - - - -
23/10:30pm 15.0 N 5 7 1013.1 - 0.0 - - - - - - -
23/10:00pm 15.1 N 4 6 1013.3 - 0.0 - - - - - - -
23/09:30pm 15.1 NW 2 6 1013.4 - 0.0 - - - - - - -
23/09:00pm 15.8 N 4 7 1013.2 - 0.0 - - - - - - -
23/08:30pm 13.7 CALM 0 0 1013.2 - 0.0 - - - - - - -
23/08:00pm 13.3 CALM 0 3 1013.3 - 0.0 - - - - - - -
23/07:30pm 13.8 CALM 0 0 1013.4 - 0.0 - - - - - - -
23/07:00pm 13.9 CALM 0 0 1013.0 - 0.0 - - - - - - -
23/06:30pm 14.0 CALM 0 0 1013.1 - 0.0 - - - - - - -
23/06:00pm 15.0 CALM 0 0 1013.0 - 0.0 - - - - - - -
23/05:30pm 15.8 CALM 0 0 1013.2 - 0.0 - - - - - - -
23/05:00pm 17.4 CALM 0 4 1013.1 - 0.0 - - - - - - -
23/04:30pm 18.1 S 1 4 1013.3 - 0.0 - - - - - - -
23/04:00pm 17.6 CALM 0 3 1013.3 - 0.0 - - - - - - -
23/03:30pm 17.9 SSW 3 4 1013.4 - 0.0 - - - - - - -
23/03:00pm 17.6 S 3 6 1013.5 - 0.0 - - - - - - -
23/02:30pm 17.4 S 2 4 1013.7 - 0.0 - - - - - - -
23/02:00pm 17.3 S 3 5 1014.0 - 0.0 - - - - - - -
23/01:30pm 17.7 S 3 6 1014.4 - 0.0 - - - - - - -
23/01:00pm 17.2 SSW 5 8 1015.0 - 0.0 - - - - - - -
23/12:30pm 16.3 S 5 8 1015.5 - 0.0 - - - - - - -
23/12:00pm 16.4 SW 3 6 1015.9 - 0.0 - - - - - - -
23/11:30am 16.2 S 2 5 1016.2 - 0.0 - - - - - - -
23/11:00am 16.2 S 3 5 1016.3 - 0.0 - - - - - - -
23/10:30am 15.9 SW 3 7 1016.9 - 0.0 - - - - - - -
23/10:00am 14.7 S 6 10 1017.1 - 0.0 - - - - - - -
23/09:30am 14.4 WSW 4 7 1017.2 - 0.0 - - - - - - -
23/09:00am 13.7 W 3 7 1017.2 - 4.8 - - - - - - -
23/08:30am 13.1 WSW 3 6 1016.8 - 4.8 - - - - - - -
23/08:00am 12.1 W 2 6 1016.8 - 4.8 - - - - - - -
23/07:30am 11.1 CALM 0 3 1016.6 - 4.8 - - - - - - -
23/07:00am 11.1 CALM 0 0 1016.3 - 4.8 - - - - - - -
23/06:30am 11.6 CALM 0 0 1016.3 - 4.8 - - - - - - -
23/06:00am 12.4 CALM 0 2 1016.5 - 4.8 - - - - - - -
23/05:30am 12.0 CALM 0 0 1016.3 - 4.8 - - - - - - -
23/05:00am 12.2 SW 2 5 1016.2 - 4.8 - - - - - - -
23/04:30am 12.4 CALM 0 0 1016.2 - 4.8 - - - - - - -
23/04:00am 13.0 CALM 0 3 1016.0 - 4.8 - - - - - - -
23/03:30am 13.2 S 1 5 1016.1 - 4.8 - - - - - - -
23/03:00am 13.5 CALM 0 0 1016.2 - 4.8 - - - - - - -
23/02:30am 13.5 CALM 0 0 1016.5 - 4.8 - - - - - - -
23/02:00am 13.5 CALM 0 0 1016.7 - 4.8 - - - - - - -
23/01:30am 13.4 CALM 0 0 1017.0 - 4.8 - - - - - - -
23/01:00am 13.3 CALM 0 0 1017.1 - 4.8 - - - - - - -
23/12:30am 13.5 CALM 0 0 1017.2 - 4.8 - - - - - - -
23/12:00am 13.7 CALM 0 0 1017.4 - 4.8 - - - - - - -
 
Date/Time
EST
Temp

°C
Wind Pressure Rain
since 9am
mm
Weather Cloud Vis
km
Sea
Height
m
Swell
Dir
 
Speed
knots
Gust
knots
hPa Trend Height
m
Period
s
Dir
22/11:30pm 14.0 CALM 0 2 1017.5 - 4.8 - - - - - - -
22/11:00pm 14.3 CALM 0 3 1017.8 - 4.8 - - - - - - -
22/10:30pm 14.3 CALM 0 0 1018.0 - 4.8 - - - - - - -
22/10:00pm 14.6 CALM 0 0 1018.0 - 4.8 - - - - - - -
22/09:30pm 14.4 CALM 0 0 1017.7 - 4.8 - - - - - - -
22/09:00pm 14.4 CALM 0 0 1017.5 - 4.8 - - - - - - -
22/08:30pm 14.7 SSE 2 4 1017.3 - 4.8 - - - - - - -
22/08:00pm 14.8 S 2 5 1017.2 - 4.8 - - - - - - -
22/07:30pm 14.9 S 3 6 1017.0 - 4.8 - - - - - - -

Other Formats:

Comma delimited format used in spreadsheet applications
http://www.bom.gov.au/fwo/IDV60701/IDV60701.95936.axf

JavaScript Object Notation format (JSON) in row-major order
http://www.bom.gov.au/fwo/IDV60701/IDV60701.95936.json